Check out our new BloomSky Weather System.

Active alerts


No alerts


Thunder radar  blitzortung!


Rain radar more information rain snow radar


Visit our other weather sites:

Template documentation
and downloads

And another site



Weather Underground History page Text

Daily Summary for July 6, 2017 Units:  Metric    English   Both
« Previous Day
Next Day »
Daily Weekly Monthly Yearly Custom
  High: Low: Average:
Temperature: 35.9 °C 25.3 °C 30.4 °C
Dew Point: 26.5 °C 23.2 °C 24.7 °C
Humidity: 95 % 50 % 73 %
Wind Speed: 19.3 km/h 0 km/h 3.5 km/h
Wind Gust: 24.1 km/h - -
Wind:- - SSE
Pressure: 1019.2 hPa 1015.8 hPa -
Precipitation: 0 mm    
Historical Graphs
 
 
Tabular Data for July 6, 2017
Time Temperature Dew Point Pressure Wind Wind Speed Wind Gust Humidity Rainfall Rate (Hourly)
00:03 28 °C 25.2 °C 1017.8 hPa Calm   6.4 km/h 85 % 0 mm
00:08 27.9 °C 25.3 °C 1018.2 hPa Calm   6.4 km/h 86 % 0 mm
00:13 27.8 °C 25.2 °C 1018.2 hPa Calm   1.6 km/h 86 % 0 mm
00:18 27.8 °C 25.2 °C 1017.8 hPa Calm   3.2 km/h 86 % 0 mm
00:23 27.7 °C 25.3 °C 1018.2 hPa South 6.4 km/h 6.4 km/h 87 % 0 mm
00:28 27.8 °C 25.4 °C 1018.2 hPa SSE 3.2 km/h 6.4 km/h 87 % 0 mm
00:33 27.8 °C 25.4 °C 1017.8 hPa South 4.8 km/h 8 km/h 87 % 0 mm
00:38 27.8 °C 25.2 °C 1017.8 hPa SSE 1.6 km/h 8 km/h 86 % 0 mm
00:43 27.8 °C 25.4 °C 1017.8 hPa SSW 1.6 km/h 8 km/h 87 % 0 mm
00:48 27.7 °C 25.3 °C 1018.2 hPa Calm   4.8 km/h 87 % 0 mm
00:53 27.7 °C 25.3 °C 1018.2 hPa SSE 1.6 km/h 4.8 km/h 87 % 0 mm
00:58 27.6 °C 25.2 °C 1018.2 hPa Calm   4.8 km/h 87 % 0 mm
01:03 27.6 °C 25.2 °C 1018.2 hPa South 3.2 km/h 3.2 km/h 87 % 0 mm
01:08 27.5 °C 25.3 °C 1018.2 hPa South 1.6 km/h 3.2 km/h 88 % 0 mm
01:13 27.5 °C 25.3 °C 1018.2 hPa Calm   3.2 km/h 88 % 0 mm
01:18 27.4 °C 25.2 °C 1018.2 hPa Calm   4.8 km/h 88 % 0 mm
01:23 27.4 °C 25.2 °C 1018.2 hPa Calm   4.8 km/h 88 % 0 mm
01:28 27.3 °C 25.1 °C 1018.2 hPa Calm   4.8 km/h 88 % 0 mm
01:33 27.2 °C 25 °C 1018.2 hPa Calm   3.2 km/h 88 % 0 mm
01:38 27.2 °C 25.2 °C 1018.2 hPa SE 1.6 km/h 1.6 km/h 89 % 0 mm
01:43 27.2 °C 25.2 °C 1018.2 hPa SSE 3.2 km/h 3.2 km/h 89 % 0 mm
01:44 27.2 °C 25.2 °C 1018.2 hPa South 1.6 km/h 3.2 km/h 89 % 0 mm
01:49 27.3 °C 25.3 °C 1018.2 hPa SE 3.2 km/h 3.2 km/h 89 % 0 mm
01:54 27.3 °C 25.3 °C 1017.8 hPa South 1.6 km/h 4.8 km/h 89 % 0 mm
01:59 27.3 °C 25.3 °C 1017.8 hPa SSE 4.8 km/h 6.4 km/h 89 % 0 mm
02:04 27.3 °C 25.3 °C 1017.8 hPa SSE 1.6 km/h 6.4 km/h 89 % 0 mm
02:09 27.4 °C 25.4 °C 1017.8 hPa ESE 3.2 km/h 6.4 km/h 89 % 0 mm
02:14 27.4 °C 25.4 °C 1017.8 hPa SSE 4.8 km/h 6.4 km/h 89 % 0 mm
02:19 27.3 °C 25.3 °C 1017.5 hPa SE 3.2 km/h 6.4 km/h 89 % 0 mm
02:24 27.3 °C 25.3 °C 1017.5 hPa SSE 3.2 km/h 6.4 km/h 89 % 0 mm
02:29 27.3 °C 25.3 °C 1017.5 hPa SE 1.6 km/h 6.4 km/h 89 % 0 mm
02:34 27.3 °C 25.3 °C 1017.5 hPa Calm   6.4 km/h 89 % 0 mm
02:39 27.2 °C 25.2 °C 1017.5 hPa Calm   4.8 km/h 89 % 0 mm
02:44 27.2 °C 25.2 °C 1017.5 hPa Calm   4.8 km/h 89 % 0 mm
02:49 27.1 °C 25.1 °C 1017.5 hPa SSE 3.2 km/h 4.8 km/h 89 % 0 mm
02:54 27.1 °C 25.1 °C 1017.5 hPa SSW 1.6 km/h 3.2 km/h 89 % 0 mm
02:59 27 °C 25.2 °C 1017.5 hPa SSE 1.6 km/h 3.2 km/h 90 % 0 mm
03:04 26.9 °C 25.1 °C 1017.5 hPa Calm   3.2 km/h 90 % 0 mm
03:09 26.9 °C 25.1 °C 1017.5 hPa Calm   3.2 km/h 90 % 0 mm
03:14 26.8 °C 25 °C 1017.5 hPa Calm   3.2 km/h 90 % 0 mm
03:19 26.7 °C 24.9 °C 1017.5 hPa Calm   3.2 km/h 90 % 0 mm
03:24 26.6 °C 25 °C 1017.5 hPa Calm   1.6 km/h 91 % 0 mm
03:29 26.6 °C 25 °C 1017.5 hPa Calm   1.6 km/h 91 % 0 mm
03:30 26.6 °C 25 °C 1017.5 hPa Calm   1.6 km/h 91 % 0 mm
03:35 26.6 °C 25 °C 1017.5 hPa Calm   1.6 km/h 91 % 0 mm
03:40 26.4 °C 24.8 °C 1017.5 hPa Calm   1.6 km/h 91 % 0 mm
03:41 26.4 °C 24.8 °C 1017.5 hPa Calm   1.6 km/h 91 % 0 mm
03:46 26.4 °C 24.8 °C 1017.5 hPa Calm   1.6 km/h 91 % 0 mm
03:51 26.4 °C 24.8 °C 1017.5 hPa Calm   1.6 km/h 91 % 0 mm
03:57 26.3 °C 24.7 °C 1017.5 hPa Calm   1.6 km/h 91 % 0 mm
04:58 26.2 °C 25 °C 1017.2 hPa Calm   4.8 km/h 93 % 0 mm
04:59 26.1 °C 24.7 °C 1017.2 hPa Calm   4.8 km/h 92 % 0 mm
05:00 26.1 °C 24.7 °C 1017.2 hPa Calm   1.6 km/h 92 % 0 mm
05:01 26.1 °C 24.7 °C 1017.2 hPa Calm   1.6 km/h 92 % 0 mm
05:03 26 °C 24.6 °C 1017.2 hPa Calm   1.6 km/h 92 % 0 mm
05:08 25.9 °C 24.7 °C 1017.2 hPa Calm     93 % 0 mm
05:14 25.9 °C 24.7 °C 1017.2 hPa Calm     93 % 0 mm
05:19 25.8 °C 24.6 °C 1017.2 hPa Calm     93 % 0 mm
05:24 25.8 °C 24.6 °C 1017.5 hPa Calm     93 % 0 mm
05:29 25.8 °C 24.6 °C 1017.5 hPa Calm     93 % 0 mm
05:34 25.8 °C 24.6 °C 1017.5 hPa Calm   1.6 km/h 93 % 0 mm
05:39 25.8 °C 24.6 °C 1017.5 hPa NNW 1.6 km/h 1.6 km/h 93 % 0 mm
05:44 25.7 °C 24.5 °C 1017.2 hPa Calm   1.6 km/h 93 % 0 mm
05:50 25.6 °C 24.4 °C 1017.5 hPa Calm   1.6 km/h 93 % 0 mm
05:55 25.5 °C 24.3 °C 1017.2 hPa Calm   1.6 km/h 93 % 0 mm
06:00 25.6 °C 24.4 °C 1017.2 hPa Calm     93 % 0 mm
06:05 25.6 °C 24.6 °C 1017.2 hPa Calm   1.6 km/h 94 % 0 mm
06:10 25.6 °C 24.6 °C 1017.2 hPa Calm   1.6 km/h 94 % 0 mm
06:15 25.5 °C 24.5 °C 1017.2 hPa Calm   1.6 km/h 94 % 0 mm
06:20 25.6 °C 24.6 °C 1017.5 hPa Calm   1.6 km/h 94 % 0 mm
06:25 25.5 °C 24.5 °C 1017.5 hPa Calm     94 % 0 mm
06:30 25.4 °C 24.4 °C 1017.5 hPa Calm     94 % 0 mm
06:35 25.4 °C 24.4 °C 1017.5 hPa Calm     94 % 0 mm
06:40 25.3 °C 24.3 °C 1017.5 hPa Calm   1.6 km/h 94 % 0 mm
06:45 25.4 °C 24.5 °C 1017.5 hPa Calm   1.6 km/h 95 % 0 mm
06:50 25.3 °C 24.3 °C 1017.5 hPa Calm   1.6 km/h 94 % 0 mm
06:55 25.4 °C 24.5 °C 1017.5 hPa East 1.6 km/h 3.2 km/h 95 % 0 mm
07:00 25.6 °C 24.7 °C 1017.5 hPa Calm   3.2 km/h 95 % 0 mm
07:05 25.7 °C 24.8 °C 1017.5 hPa Calm   3.2 km/h 95 % 0 mm
07:10 25.9 °C 25 °C 1017.5 hPa Calm   3.2 km/h 95 % 0 mm
07:15 26.2 °C 25.3 °C 1017.5 hPa Calm   1.6 km/h 95 % 0 mm
07:20 26.6 °C 25.6 °C 1017.8 hPa Calm   1.6 km/h 94 % 0 mm
07:25 26.9 °C 25.7 °C 1017.8 hPa Calm   1.6 km/h 93 % 0 mm
07:30 27.2 °C 25.8 °C 1017.8 hPa Calm   1.6 km/h 92 % 0 mm
07:35 27.6 °C 26.2 °C 1017.8 hPa Calm   1.6 km/h 92 % 0 mm
07:40 28.1 °C 26.5 °C 1018.2 hPa Calm   1.6 km/h 91 % 0 mm
07:45 28.2 °C 26.2 °C 1018.2 hPa Calm   3.2 km/h 89 % 0 mm
07:50 28.3 °C 25.9 °C 1018.2 hPa Calm   3.2 km/h 87 % 0 mm
07:55 28.6 °C 26.2 °C 1018.2 hPa Calm   4.8 km/h 87 % 0 mm
08:00 28.8 °C 26 °C 1018.2 hPa Calm   4.8 km/h 85 % 0 mm
08:05 29.1 °C 26.1 °C 1018.2 hPa Calm   4.8 km/h 84 % 0 mm
08:10 29.4 °C 26.2 °C 1018.5 hPa Calm   4.8 km/h 83 % 0 mm
08:15 29.5 °C 26.1 °C 1018.5 hPa SSE 1.6 km/h 6.4 km/h 82 % 0 mm
08:20 29.6 °C 26 °C 1018.5 hPa South 3.2 km/h 6.4 km/h 81 % 0 mm
08:25 29.7 °C 26.1 °C 1018.5 hPa South 6.4 km/h 6.4 km/h 81 % 0 mm
08:30 29.6 °C 25.6 °C 1018.5 hPa SSE 1.6 km/h 9.7 km/h 79 % 0 mm
08:35 29.7 °C 25.9 °C 1018.8 hPa East 3.2 km/h 9.7 km/h 80 % 0 mm
08:40 29.7 °C 25.9 °C 1018.5 hPa ESE 4.8 km/h 9.7 km/h 80 % 0 mm
08:45 29.8 °C 25.8 °C 1018.5 hPa ENE 1.6 km/h 8 km/h 79 % 0 mm
08:50 30.3 °C 26.5 °C 1018.5 hPa SSE 3.2 km/h 8 km/h 80 % 0 mm
08:55 30.6 °C 26.3 °C 1018.8 hPa Calm   8 km/h 78 % 0 mm
09:00 30.7 °C 26 °C 1018.8 hPa SSW 3.2 km/h 6.4 km/h 76 % 0 mm
09:05 30.8 °C 26.1 °C 1018.8 hPa SSE 1.6 km/h 6.4 km/h 76 % 0 mm
09:06 30.8 °C 26.1 °C 1018.8 hPa SE 3.2 km/h 6.4 km/h 76 % 0 mm
09:11 30.9 °C 25.9 °C 1018.8 hPa SSW 6.4 km/h 8 km/h 75 % 0 mm
09:16 30.8 °C 25.6 °C 1018.8 hPa SW 3.2 km/h 8 km/h 74 % 0 mm
09:21 30.9 °C 25.7 °C 1018.8 hPa Calm   8 km/h 74 % 0 mm
09:26 31 °C 26 °C 1018.8 hPa NW 1.6 km/h 8 km/h 75 % 0 mm
09:31 31.2 °C 25.5 °C 1018.8 hPa SSW 3.2 km/h 8 km/h 72 % 0 mm
09:36 31.4 °C 26 °C 1018.8 hPa SSW 1.6 km/h 9.7 km/h 73 % 0 mm
09:41 31.7 °C 25.6 °C 1018.8 hPa SSW 3.2 km/h 9.7 km/h 70 % 0 mm
09:46 31.8 °C 25.4 °C 1018.8 hPa Calm   9.7 km/h 69 % 0 mm
09:51 32 °C 25.3 °C 1018.8 hPa Calm   9.7 km/h 68 % 0 mm
09:56 32 °C 25.3 °C 1018.8 hPa ESE 4.8 km/h 11.3 km/h 68 % 0 mm
10:01 31.7 °C 25.3 °C 1018.8 hPa Calm   11.3 km/h 69 % 0 mm
10:07 31.9 °C 25.5 °C 1019.2 hPa SE 6.4 km/h 11.3 km/h 69 % 0 mm
10:12 31.6 °C 25.2 °C 1019.2 hPa Calm   11.3 km/h 69 % 0 mm
10:17 31.8 °C 25.6 °C 1019.2 hPa SSW 3.2 km/h 8 km/h 70 % 0 mm
10:22 31.7 °C 24.6 °C 1019.2 hPa SSW 3.2 km/h 8 km/h 66 % 0 mm
10:27 31.7 °C 25.1 °C 1019.2 hPa SE 1.6 km/h 4.8 km/h 68 % 0 mm
10:32 31.4 °C 24.3 °C 1019.2 hPa Calm   4.8 km/h 66 % 0 mm
10:37 31.5 °C 24.9 °C 1019.2 hPa Calm   4.8 km/h 68 % 0 mm
10:42 31.6 °C 25 °C 1019.2 hPa SE 1.6 km/h 3.2 km/h 68 % 0 mm
10:47 31.5 °C 24.6 °C 1019.2 hPa SSW 1.6 km/h 6.4 km/h 67 % 0 mm
10:52 31.3 °C 24.7 °C 1019.2 hPa Calm   6.4 km/h 68 % 0 mm
10:57 31.3 °C 24.2 °C 1019.2 hPa South 1.6 km/h 6.4 km/h 66 % 0 mm
11:02 31.7 °C 24.8 °C 1019.2 hPa Calm   6.4 km/h 67 % 0 mm
11:07 32.4 °C 25 °C 1019.2 hPa Calm   6.4 km/h 65 % 0 mm
11:12 33.1 °C 25.4 °C 1019.2 hPa SSE 3.2 km/h 6.4 km/h 64 % 0 mm
11:17 33.5 °C 24.9 °C 1019.2 hPa Calm   4.8 km/h 61 % 0 mm
11:22 33.3 °C 24.2 °C 1019.2 hPa Calm   4.8 km/h 59 % 0 mm
11:27 33.1 °C 24.6 °C 1019.2 hPa Calm   4.8 km/h 61 % 0 mm
11:32 33.3 °C 24.5 °C 1019.2 hPa NNW 1.6 km/h 4.8 km/h 60 % 0 mm
11:37 33.7 °C 24.6 °C 1019.2 hPa South 4.8 km/h 4.8 km/h 59 % 0 mm
11:42 33.8 °C 24.1 °C 1019.2 hPa ESE 4.8 km/h 6.4 km/h 57 % 0 mm
11:47 34.1 °C 24.9 °C 1019.2 hPa Calm   8 km/h 59 % 0 mm
11:52 34.4 °C 24.6 °C 1019.2 hPa ESE 4.8 km/h 8 km/h 57 % 0 mm
11:57 34.8 °C 25.3 °C 1019.2 hPa Calm   11.3 km/h 58 % 0 mm
12:02 35.3 °C 26.1 °C 1018.8 hPa South 1.6 km/h 11.3 km/h 59 % 0 mm
12:07 35.6 °C 25.5 °C 1018.8 hPa SSE 1.6 km/h 11.3 km/h 56 % 0 mm
12:12 35.6 °C 25.2 °C 1018.8 hPa NNW 1.6 km/h 11.3 km/h 55 % 0 mm
12:17 35.3 °C 24.9 °C 1018.8 hPa Calm   11.3 km/h 55 % 0 mm
12:22 35 °C 24.3 °C 1018.8 hPa NW 1.6 km/h 11.3 km/h 54 % 0 mm
12:27 34.6 °C 24.2 °C 1018.8 hPa Calm   6.4 km/h 55 % 0 mm
12:32 34.4 °C 24.3 °C 1018.8 hPa NNW 3.2 km/h 4.8 km/h 56 % 0 mm
12:37 34.4 °C 24.3 °C 1018.8 hPa ESE 1.6 km/h 4.8 km/h 56 % 0 mm
12:42 34.2 °C 23.9 °C 1018.8 hPa NNW 1.6 km/h 8 km/h 55 % 0 mm
12:47 34 °C 24 °C 1018.5 hPa NW 3.2 km/h 8 km/h 56 % 0 mm
12:52 33.7 °C 23.4 °C 1018.5 hPa NNW 1.6 km/h 8 km/h 55 % 0 mm
12:57 33.6 °C 23.6 °C 1018.5 hPa ENE 4.8 km/h 6.4 km/h 56 % 0 mm
13:02 33.4 °C 24 °C 1018.5 hPa ESE 1.6 km/h 6.4 km/h 58 % 0 mm
13:07 33.6 °C 23.9 °C 1018.2 hPa Calm   6.4 km/h 57 % 0 mm
13:12 33.7 °C 23.7 °C 1018.5 hPa Calm   6.4 km/h 56 % 0 mm
13:17 33.9 °C 23.6 °C 1018.5 hPa East 4.8 km/h 6.4 km/h 55 % 0 mm
13:22 34.1 °C 24.4 °C 1018.2 hPa East 3.2 km/h 8 km/h 57 % 0 mm
13:27 34.6 °C 24.2 °C 1018.2 hPa ESE 9.7 km/h 11.3 km/h 55 % 0 mm
13:32 34.6 °C 24.2 °C 1018.2 hPa South 8 km/h 11.3 km/h 55 % 0 mm
13:37 34.2 °C 24.2 °C 1018.2 hPa East 8 km/h 12.9 km/h 56 % 0 mm
13:42 34.6 °C 24.8 °C 1018.2 hPa SE 12.9 km/h 12.9 km/h 57 % 0 mm
13:47 34.8 °C 25.3 °C 1017.8 hPa ENE 3.2 km/h 14.5 km/h 58 % 0 mm
13:52 34.9 °C 24.8 °C 1017.8 hPa SE 6.4 km/h 14.5 km/h 56 % 0 mm
13:57 35.1 °C 24.4 °C 1017.8 hPa NNE 4.8 km/h 14.5 km/h 54 % 0 mm
14:02 35.1 °C 24.1 °C 1017.8 hPa SE 6.4 km/h 12.9 km/h 53 % 0 mm
14:07 35.2 °C 24.5 °C 1017.8 hPa SSE 6.4 km/h 12.9 km/h 54 % 0 mm
14:12 34.9 °C 24.5 °C 1017.8 hPa ESE 4.8 km/h 12.9 km/h 55 % 0 mm
14:17 34.8 °C 25 °C 1017.8 hPa NE 6.4 km/h 12.9 km/h 57 % 0 mm
14:22 35.1 °C 24.7 °C 1017.5 hPa NE 1.6 km/h 12.9 km/h 55 % 0 mm
14:27 35.3 °C 24.6 °C 1017.5 hPa ESE 1.6 km/h 12.9 km/h 54 % 0 mm
14:32 35.4 °C 24.7 °C 1017.5 hPa NW 1.6 km/h 12.9 km/h 54 % 0 mm
14:37 35.5 °C 24.8 °C 1017.2 hPa East 8 km/h 11.3 km/h 54 % 0 mm
14:42 35.6 °C 24.5 °C 1017.2 hPa ESE 4.8 km/h 12.9 km/h 53 % 0 mm
14:47 35.8 °C 24.4 °C 1017.2 hPa ENE 6.4 km/h 12.9 km/h 52 % 0 mm
14:52 35.5 °C 24.1 °C 1017.2 hPa SSE 14.5 km/h 14.5 km/h 52 % 0 mm
14:57 35.4 °C 24.4 °C 1017.2 hPa ESE 8 km/h 16.1 km/h 53 % 0 mm
15:02 35.6 °C 24.9 °C 1017.2 hPa SE 4.8 km/h 16.1 km/h 54 % 0 mm
15:07 35.9 °C 23.8 °C 1017.2 hPa SW 9.7 km/h 16.1 km/h 50 % 0 mm
15:12 35.3 °C 23.6 °C 1017.2 hPa SE 9.7 km/h 14.5 km/h 51 % 0 mm
15:17 34.9 °C 23.9 °C 1017.2 hPa SSE 6.4 km/h 14.5 km/h 53 % 0 mm
15:22 34.9 °C 23.9 °C 1016.8 hPa South 1.6 km/h 14.5 km/h 53 % 0 mm
15:27 35.1 °C 23.8 °C 1016.8 hPa South 3.2 km/h 12.9 km/h 52 % 0 mm
15:32 34.7 °C 23.4 °C 1016.8 hPa SE 1.6 km/h 16.1 km/h 52 % 0 mm
15:37 34.4 °C 23.4 °C 1016.5 hPa SE 9.7 km/h 16.1 km/h 53 % 0 mm
15:42 34.3 °C 23.3 °C 1016.5 hPa SSE 9.7 km/h 16.1 km/h 53 % 0 mm
15:47 34.5 °C 23.5 °C 1016.5 hPa SE 9.7 km/h 12.9 km/h 53 % 0 mm
15:52 34.6 °C 23.9 °C 1016.5 hPa SE 6.4 km/h 12.9 km/h 54 % 0 mm
15:57 34.5 °C 23.2 °C 1016.1 hPa SSE 4.8 km/h 11.3 km/h 52 % 0 mm
16:02 34.2 °C 23.2 °C 1016.1 hPa SE 9.7 km/h 14.5 km/h 53 % 0 mm
16:07 34.3 °C 23.7 °C 1016.1 hPa East 4.8 km/h 14.5 km/h 54 % 0 mm
16:12 34.6 °C 23.6 °C 1016.1 hPa SE 11.3 km/h 14.5 km/h 53 % 0 mm
16:17 34.3 °C 23.7 °C 1016.1 hPa ESE 6.4 km/h 16.1 km/h 54 % 0 mm
16:22 34.2 °C 23.2 °C 1016.1 hPa NE 6.4 km/h 16.1 km/h 53 % 0 mm
16:27 34.2 °C 23.2 °C 1016.1 hPa ESE 4.8 km/h 16.1 km/h 53 % 0 mm
16:32 34.2 °C 23.6 °C 1016.1 hPa East 6.4 km/h 14.5 km/h 54 % 0 mm
16:37 34.1 °C 23.5 °C 1016.1 hPa East 6.4 km/h 16.1 km/h 54 % 0 mm
16:42 34.2 °C 24.8 °C 1016.1 hPa SE 19.3 km/h 20.9 km/h 58 % 0 mm
16:47 33.8 °C 24.4 °C 1016.1 hPa South 16.1 km/h 24.1 km/h 58 % 0 mm
16:52 33.8 °C 24.7 °C 1016.1 hPa SSE 12.9 km/h 24.1 km/h 59 % 0 mm
16:57 33.7 °C 24.6 °C 1016.5 hPa SSE 6.4 km/h 24.1 km/h 59 % 0 mm
17:02 33.6 °C 24.8 °C 1016.1 hPa SW 12.9 km/h 22.5 km/h 60 % 0 mm
17:07 33.6 °C 24.5 °C 1016.1 hPa SE 8 km/h 19.3 km/h 59 % 0 mm
17:12 33.5 °C 24.7 °C 1016.1 hPa SE 6.4 km/h 17.7 km/h 60 % 0 mm
17:17 33.6 °C 24.8 °C 1016.1 hPa ESE 8 km/h 19.3 km/h 60 % 0 mm
17:22 33.7 °C 24.3 °C 1016.1 hPa SE 17.7 km/h 19.3 km/h 58 % 0 mm
17:27 33.7 °C 24.3 °C 1015.8 hPa SSE 16.1 km/h 24.1 km/h 58 % 0 mm
17:32 33.7 °C 24.3 °C 1015.8 hPa SE 9.7 km/h 24.1 km/h 58 % 0 mm
17:37 33.8 °C 24.4 °C 1015.8 hPa SE 8 km/h 24.1 km/h 58 % 0 mm
17:42 33.8 °C 24.4 °C 1015.8 hPa SSE 14.5 km/h 20.9 km/h 58 % 0 mm
17:47 33.9 °C 24.5 °C 1015.8 hPa SSE 14.5 km/h 19.3 km/h 58 % 0 mm
17:52 33.7 °C 24 °C 1016.1 hPa East 11.3 km/h 24.1 km/h 57 % 0 mm
17:57 33.3 °C 23.6 °C 1016.1 hPa SE 11.3 km/h 24.1 km/h 57 % 0 mm
18:02 33.1 °C 23.4 °C 1016.1 hPa SE 4.8 km/h 24.1 km/h 57 % 0 mm
18:07 32.9 °C 23.5 °C 1016.1 hPa SSW 6.4 km/h 20.9 km/h 58 % 0 mm
18:12 32.7 °C 23.4 °C 1016.1 hPa SSW 6.4 km/h 20.9 km/h 58 % 0 mm
18:17 32.7 °C 23.6 °C 1015.8 hPa SSE 4.8 km/h 16.1 km/h 59 % 0 mm
18:22 32.6 °C 23.5 °C 1015.8 hPa SE 8 km/h 12.9 km/h 59 % 0 mm
18:27 32.6 °C 23.8 °C 1015.8 hPa ESE 8 km/h 16.1 km/h 60 % 0 mm
18:32 32.6 °C 24.1 °C 1015.8 hPa SSE 4.8 km/h 16.1 km/h 61 % 0 mm
18:37 32.5 °C 24 °C 1015.8 hPa SE 4.8 km/h 16.1 km/h 61 % 0 mm
18:42 32.4 °C 24.2 °C 1015.8 hPa SE 6.4 km/h 12.9 km/h 62 % 0 mm
18:47 32.4 °C 24.4 °C 1015.8 hPa East 4.8 km/h 12.9 km/h 63 % 0 mm
18:52 32.4 °C 24.4 °C 1016.1 hPa South 1.6 km/h 11.3 km/h 63 % 0 mm
18:57 32.3 °C 24.6 °C 1016.1 hPa South 4.8 km/h 11.3 km/h 64 % 0 mm
19:02 32.2 °C 24.8 °C 1016.1 hPa SSE 8 km/h 11.3 km/h 65 % 0 mm
19:07 32.1 °C 24.7 °C 1016.1 hPa SSE 3.2 km/h 12.9 km/h 65 % 0 mm
19:12 32.1 °C 24.7 °C 1016.1 hPa SSE 6.4 km/h 12.9 km/h 65 % 0 mm
19:17 32 °C 24.6 °C 1016.1 hPa ESE 6.4 km/h 12.9 km/h 65 % 0 mm
19:22 32 °C 24.3 °C 1016.1 hPa SSE 3.2 km/h 11.3 km/h 64 % 0 mm
19:27 31.9 °C 24 °C 1016.1 hPa SE 9.7 km/h 12.9 km/h 63 % 0 mm
19:32 31.9 °C 24 °C 1016.1 hPa ESE 3.2 km/h 12.9 km/h 63 % 0 mm
19:37 31.8 °C 23.9 °C 1016.5 hPa SSE 3.2 km/h 12.9 km/h 63 % 0 mm
19:42 31.7 °C 23.8 °C 1016.1 hPa SE 3.2 km/h 11.3 km/h 63 % 0 mm
19:47 31.7 °C 24 °C 1016.1 hPa ESE 4.8 km/h 9.7 km/h 64 % 0 mm
19:52 31.6 °C 24.2 °C 1016.5 hPa SSE 3.2 km/h 14.5 km/h 65 % 0 mm
19:57 31.4 °C 24 °C 1016.5 hPa ESE 9.7 km/h 14.5 km/h 65 % 0 mm
20:02 31.3 °C 24.2 °C 1016.5 hPa South 6.4 km/h 14.5 km/h 66 % 0 mm
20:07 31.1 °C 24.2 °C 1016.5 hPa South 3.2 km/h 14.5 km/h 67 % 0 mm
20:12 30.8 °C 24.2 °C 1016.5 hPa SSE 1.6 km/h 12.9 km/h 68 % 0 mm
20:17 30.5 °C 24.2 °C 1016.5 hPa SSE 3.2 km/h 9.7 km/h 69 % 0 mm
20:22 30.4 °C 24.3 °C 1016.5 hPa SE 3.2 km/h 8 km/h 70 % 0 mm
20:27 30.3 °C 24.4 °C 1016.8 hPa Calm   6.4 km/h 71 % 0 mm
20:32 30.3 °C 24.4 °C 1016.8 hPa Calm   6.4 km/h 71 % 0 mm
20:37 30.3 °C 24.4 °C 1016.5 hPa SSW 4.8 km/h 6.4 km/h 71 % 0 mm
20:42 30.3 °C 24.7 °C 1016.8 hPa ESE 4.8 km/h 11.3 km/h 72 % 0 mm
20:47 30.3 °C 24.7 °C 1016.8 hPa ESE 8 km/h 11.3 km/h 72 % 0 mm
20:52 30.3 °C 24.7 °C 1016.8 hPa ESE 4.8 km/h 11.3 km/h 72 % 0 mm
20:57 30.3 °C 24.7 °C 1017.2 hPa SE 3.2 km/h 11.3 km/h 72 % 0 mm
21:02 30.2 °C 24.6 °C 1016.8 hPa SSW 3.2 km/h 11.3 km/h 72 % 0 mm
21:07 30.1 °C 24.7 °C 1016.8 hPa SSE 4.8 km/h 6.4 km/h 73 % 0 mm
21:12 30.1 °C 24.7 °C 1016.8 hPa SSW 6.4 km/h 8 km/h 73 % 0 mm
21:17 29.9 °C 24.5 °C 1016.8 hPa SE 3.2 km/h 9.7 km/h 73 % 0 mm
21:22 29.9 °C 24.5 °C 1017.2 hPa SSE 3.2 km/h 9.7 km/h 73 % 0 mm
21:27 29.8 °C 24.4 °C 1016.8 hPa South 4.8 km/h 9.7 km/h 73 % 0 mm
21:32 29.8 °C 24.7 °C 1017.2 hPa SE 1.6 km/h 11.3 km/h 74 % 0 mm
21:38 29.8 °C 24.4 °C 1017.2 hPa South 4.8 km/h 11.3 km/h 73 % 0 mm
21:43 29.7 °C 24.6 °C 1017.2 hPa SSE 8 km/h 11.3 km/h 74 % 0 mm
21:48 29.6 °C 24.5 °C 1017.2 hPa SE 6.4 km/h 11.3 km/h 74 % 0 mm
21:53 29.6 °C 24.7 °C 1017.2 hPa ESE 3.2 km/h 9.7 km/h 75 % 0 mm
21:58 29.4 °C 24.5 °C 1017.2 hPa SSW 6.4 km/h 9.7 km/h 75 % 0 mm
22:03 29.4 °C 24.5 °C 1017.2 hPa South 9.7 km/h 11.3 km/h 75 % 0 mm
22:08 29.3 °C 24.6 °C 1017.2 hPa South 4.8 km/h 11.3 km/h 76 % 0 mm
22:13 29.3 °C 24.6 °C 1017.2 hPa SE 4.8 km/h 12.9 km/h 76 % 0 mm
22:18 29.2 °C 24.5 °C 1017.2 hPa SE 6.4 km/h 12.9 km/h 76 % 0 mm
22:23 29.1 °C 24.7 °C 1017.2 hPa SSW 3.2 km/h 12.9 km/h 77 % 0 mm
22:28 29 °C 24.6 °C 1017.5 hPa SSW 3.2 km/h 11.3 km/h 77 % 0 mm
22:33 28.9 °C 24.7 °C 1017.5 hPa SSW 4.8 km/h 11.3 km/h 78 % 0 mm
22:38 28.8 °C 24.6 °C 1017.5 hPa SSE 3.2 km/h 11.3 km/h 78 % 0 mm
22:43 28.8 °C 24.8 °C 1017.5 hPa South 4.8 km/h 9.7 km/h 79 % 0 mm
22:48 28.7 °C 24.7 °C 1017.5 hPa South 4.8 km/h 11.3 km/h 79 % 0 mm
22:53 28.7 °C 24.7 °C 1017.5 hPa SE 4.8 km/h 11.3 km/h 79 % 0 mm
22:58 28.7 °C 24.7 °C 1017.5 hPa SE 1.6 km/h 11.3 km/h 79 % 0 mm
23:03 28.6 °C 24.6 °C 1017.5 hPa SSE 3.2 km/h 11.3 km/h 79 % 0 mm
23:08 28.5 °C 24.7 °C 1017.5 hPa South 3.2 km/h 11.3 km/h 80 % 0 mm
23:13 28.4 °C 24.6 °C 1017.5 hPa SSW 3.2 km/h 9.7 km/h 80 % 0 mm
23:18 28.3 °C 24.5 °C 1017.8 hPa SE 1.6 km/h 9.7 km/h 80 % 0 mm
23:23 28.3 °C 24.7 °C 1017.8 hPa SSE 4.8 km/h 8 km/h 81 % 0 mm
23:28 28.3 °C 24.7 °C 1017.8 hPa SE 6.4 km/h 8 km/h 81 % 0 mm
23:33 28.3 °C 24.7 °C 1017.8 hPa SSE 1.6 km/h 6.4 km/h 81 % 0 mm
23:38 28.2 °C 24.6 °C 1017.8 hPa Calm   8 km/h 81 % 0 mm
23:43 28.1 °C 24.5 °C 1017.8 hPa South 8 km/h 8 km/h 81 % 0 mm
23:48 28.1 °C 24.7 °C 1017.8 hPa SE 8 km/h 11.3 km/h 82 % 0 mm
23:53 28.1 °C 24.7 °C 1017.8 hPa SW 4.8 km/h 11.3 km/h 82 % 0 mm
23:58 28 °C 24.6 °C 1017.8 hPa SSE 3.2 km/h 11.3 km/h 82 % 0 mm
Spring, Texas: Villages of Bridgestone
Compliments of Weather Underground - 2.75 mb

Script developed by  Jim McMurry - jmcmurry@mwt.net Adapted for the template by  Wim van der Kuil - Leuven-Template.eu

You find our weather info also at:

UK Metoffice

WeatherCloud

Weather Underground

Mid-South Weather Network

AWEKAS

Citizen Weather Observer Program (CWOP)

HAMweather, WeatherForYou, PWS Weather

Equipment we use:

Weather-station
Davis Vantage Vue

Weather-program
Meteohub

Weather-server
Debian 7.9 x86 (Guest)

Provider
DreamHost

Davis Vantage Vue

Meteohub

Debian 7.9 x86 (Guest)

DreamHost